sensor_id;sensor_type;location;lat;lon;timestamp;pressure;altitude;pressure_sealevel;temperature;humidity
49945;BME280;35838;49.134;9.212;2022-09-01T03:20:33;100066.91;;;18.09;72.36
49945;BME280;35838;49.134;9.212;2022-09-01T03:22:09;100062.16;;;17.92;73.17
49945;BME280;35838;49.134;9.212;2022-09-01T03:23:44;100055.97;;;17.96;73.21
49945;BME280;35838;49.134;9.212;2022-09-01T03:25:18;100055.25;;;17.90;73.42
49945;BME280;35838;49.134;9.212;2022-09-01T03:26:50;100058.72;;;17.90;73.14
49945;BME280;35838;49.134;9.212;2022-09-01T03:28:25;100057.19;;;17.84;73.42
49945;BME280;35838;49.134;9.212;2022-09-01T03:29:56;100066.91;;;17.81;73.79
49945;BME280;35838;49.134;9.212;2022-09-01T03:31:30;100059.03;;;17.81;74.13
49945;BME280;35838;49.134;9.212;2022-09-01T03:33:05;100061.63;;;17.82;73.68
49945;BME280;35838;49.134;9.212;2022-09-01T03:34:39;100064.28;;;17.81;73.60
49945;BME280;35838;49.134;9.212;2022-09-01T03:36:16;100058.13;;;17.82;73.65
49945;BME280;35838;49.134;9.212;2022-09-01T03:37:51;100059.69;;;17.88;73.51
49945;BME280;35838;49.134;9.212;2022-09-01T03:39:25;100059.91;;;17.81;73.67
49945;BME280;35838;49.134;9.212;2022-09-01T03:41:04;100064.25;;;17.82;73.65
49945;BME280;35838;49.134;9.212;2022-09-01T03:42:39;100060.72;;;17.83;73.60
49945;BME280;35838;49.134;9.212;2022-09-01T03:44:13;100063.34;;;17.83;73.88
49945;BME280;35838;49.134;9.212;2022-09-01T03:45:48;100064.13;;;17.85;73.92
49945;BME280;35838;49.134;9.212;2022-09-01T03:47:19;100062.53;;;17.81;73.86
49945;BME280;35838;49.134;9.212;2022-09-01T03:48:55;100067.84;;;17.78;74.11
49945;BME280;35838;49.134;9.212;2022-09-01T03:50:34;100069.56;;;17.79;73.88
49945;BME280;35838;49.134;9.212;2022-09-01T03:52:13;100064.13;;;17.85;73.98
49945;BME280;35838;49.134;9.212;2022-09-01T03:53:48;100060.59;;;17.86;73.82
49945;BME280;35838;49.134;9.212;2022-09-01T03:55:26;100061.47;;;17.87;73.90
49945;BME280;35838;49.134;9.212;2022-09-01T03:57:01;100061.66;;;17.81;74.03
49945;BME280;35838;49.134;9.212;2022-09-01T03:58:36;100061.50;;;17.85;73.93
49945;BME280;35838;49.134;9.212;2022-09-01T04:00:09;100066.75;;;17.85;73.91
49945;BME280;35838;49.134;9.212;2022-09-01T04:01:50;100065.00;;;17.86;74.02
49945;BME280;35838;49.134;9.212;2022-09-01T04:03:27;100060.59;;;17.86;73.61
49945;BME280;35838;49.134;9.212;2022-09-01T04:05:01;100062.31;;;17.88;73.58
49945;BME280;35838;49.134;9.212;2022-09-01T04:06:36;100062.31;;;17.88;73.70
49945;BME280;35838;49.134;9.212;2022-09-01T04:08:13;100061.63;;;17.82;73.52
49945;BME280;35838;49.134;9.212;2022-09-01T04:09:44;100063.34;;;17.83;73.48
49945;BME280;35838;49.134;9.212;2022-09-01T04:11:19;100059.06;;;17.79;74.50
49945;BME280;35838;49.134;9.212;2022-09-01T04:12:53;100061.56;;;17.84;74.07
49945;BME280;35838;49.134;9.212;2022-09-01T04:14:29;100057.28;;;17.81;74.29
49945;BME280;35838;49.134;9.212;2022-09-01T04:16:03;100062.88;;;17.69;74.66
49945;BME280;35838;49.134;9.212;2022-09-01T04:17:59;100065.91;;;17.57;75.15
49945;BME280;35838;49.134;9.212;2022-09-01T04:19:40;100057.94;;;17.60;75.50
49945;BME280;35838;49.134;9.212;2022-09-01T04:21:12;100061.28;;;17.65;75.40
49945;BME280;35838;49.134;9.212;2022-09-01T04:22:48;100060.31;;;17.67;75.43
49945;BME280;35838;49.134;9.212;2022-09-01T04:24:26;100057.66;;;17.69;75.32
49945;BME280;35838;49.134;9.212;2022-09-01T04:26:04;100063.63;;;17.74;75.39
49945;BME280;35838;49.134;9.212;2022-09-01T04:27:43;100067.16;;;17.73;75.23
49945;BME280;35838;49.134;9.212;2022-09-01T04:29:18;100072.00;;;17.57;75.80
49945;BME280;35838;49.134;9.212;2022-09-01T04:30:57;100066.53;;;17.65;75.89
49945;BME280;35838;49.134;9.212;2022-09-01T04:32:35;100073.94;;;17.80;76.19
49945;BME280;35838;49.134;9.212;2022-09-01T04:34:10;100062.44;;;17.84;75.85
49945;BME280;35838;49.134;9.212;2022-09-01T04:35:44;100071.59;;;17.71;75.03
49945;BME280;35838;49.134;9.212;2022-09-01T04:37:20;100070.53;;;17.77;75.61
49945;BME280;35838;49.134;9.212;2022-09-01T04:38:56;100063.06;;;17.93;74.76
49945;BME280;35838;49.134;9.212;2022-09-01T04:40:31;100061.47;;;17.87;74.93
49945;BME280;35838;49.134;9.212;2022-09-01T04:42:08;100065.41;;;18.02;75.74
49945;BME280;35838;49.134;9.212;2022-09-01T04:43:42;100065.59;;;17.96;74.44
49945;BME280;35838;49.134;9.212;2022-09-01T04:45:17;100061.41;;;17.89;74.71
49945;BME280;35838;49.134;9.212;2022-09-01T04:46:59;100063.38;;;17.82;74.74
49945;BME280;35838;49.134;9.212;2022-09-01T04:48:30;100049.19;;;17.88;74.59
49945;BME280;35838;49.134;9.212;2022-09-01T04:50:07;100061.16;;;17.69;74.72
49945;BME280;35838;49.134;9.212;2022-09-01T04:51:46;100059.91;;;17.81;75.19
49945;BME280;35838;49.134;9.212;2022-09-01T04:53:20;100058.78;;;17.89;74.89
49945;BME280;35838;49.134;9.212;2022-09-01T04:54:54;100062.19;;;17.64;74.78
49945;BME280;35838;49.134;9.212;2022-09-01T04:56:31;100058.03;;;17.57;75.14
49945;BME280;35838;49.134;9.212;2022-09-01T04:58:06;100067.97;;;17.75;75.48
49945;BME280;35838;49.134;9.212;2022-09-01T04:59:40;100059.75;;;17.58;75.12
49945;BME280;35838;49.134;9.212;2022-09-01T05:01:18;100068.19;;;17.67;75.29
49945;BME280;35838;49.134;9.212;2022-09-01T05:02:51;100075.50;;;17.58;74.92
49945;BME280;35838;49.134;9.212;2022-09-01T05:04:27;100075.22;;;17.67;75.48
49945;BME280;35838;49.134;9.212;2022-09-01T05:06:03;100077.53;;;17.76;75.39
49945;BME280;35838;49.134;9.212;2022-09-01T05:07:38;100089.06;;;17.72;74.94
49945;BME280;35838;49.134;9.212;2022-09-01T05:09:13;100081.25;;;17.69;75.08
49945;BME280;35838;49.134;9.212;2022-09-01T05:10:49;100080.97;;;17.78;74.28
49945;BME280;35838;49.134;9.212;2022-09-01T05:12:28;100085.41;;;17.76;75.21
49945;BME280;35838;49.134;9.212;2022-09-01T05:14:03;100085.81;;;17.64;74.71
49945;BME280;35838;49.134;9.212;2022-09-01T05:15:38;100094.78;;;17.57;74.76
49945;BME280;35838;49.134;9.212;2022-09-01T05:17:16;100098.78;;;17.68;74.53
49945;BME280;35838;49.134;9.212;2022-09-01T05:18:52;100101.28;;;17.73;74.03
49945;BME280;35838;49.134;9.212;2022-09-01T05:20:27;100097.00;;;17.70;73.72
49945;BME280;35838;49.134;9.212;2022-09-01T05:22:02;100094.38;;;17.70;74.39
49945;BME280;35838;49.134;9.212;2022-09-01T05:23:40;100100.69;;;17.33;75.13
49945;BME280;35838;49.134;9.212;2022-09-01T05:25:14;100105.88;;;17.35;75.83
49945;BME280;35838;49.134;9.212;2022-09-01T05:26:48;100111.41;;;17.26;76.01
49945;BME280;35838;49.134;9.212;2022-09-01T05:28:25;100102.16;;;17.12;76.47
49945;BME280;35838;49.134;9.212;2022-09-01T05:29:59;100111.63;;;17.18;76.26
49945;BME280;35838;49.134;9.212;2022-09-01T05:31:39;100104.28;;;16.99;76.57
49945;BME280;35838;49.134;9.212;2022-09-01T05:33:14;100114.94;;;16.91;77.47
49945;BME280;35838;49.134;9.212;2022-09-01T05:34:48;100112.66;;;16.79;77.56
49945;BME280;35838;49.134;9.212;2022-09-01T05:36:23;100114.31;;;16.82;78.29
49945;BME280;35838;49.134;9.212;2022-09-01T05:37:56;100105.63;;;16.80;78.11
49945;BME280;35838;49.134;9.212;2022-09-01T05:39:32;100110.59;;;16.90;77.95
49945;BME280;35838;49.134;9.212;2022-09-01T05:41:09;100114.63;;;17.04;78.31
49945;BME280;35838;49.134;9.212;2022-09-01T05:42:45;100110.94;;;17.11;77.40
49945;BME280;35838;49.134;9.212;2022-09-01T05:44:21;100111.41;;;17.26;76.57
49945;BME280;35838;49.134;9.212;2022-09-01T05:45:55;100111.91;;;17.38;75.60
49945;BME280;35838;49.134;9.212;2022-09-01T05:47:30;100112.59;;;17.45;75.05
49945;BME280;35838;49.134;9.212;2022-09-01T05:49:07;100115.94;;;17.50;75.07
49945;BME280;35838;49.134;9.212;2022-09-01T05:50:46;100114.00;;;17.57;74.35
49945;BME280;35838;49.134;9.212;2022-09-01T05:52:20;100118.25;;;17.61;74.13
49945;BME280;35838;49.134;9.212;2022-09-01T05:53:56;100117.38;;;17.61;74.19
49945;BME280;35838;49.134;9.212;2022-09-01T05:55:31;100120.75;;;17.66;73.97
49945;BME280;35838;49.134;9.212;2022-09-01T05:57:07;100114.59;;;17.67;73.81
49945;BME280;35838;49.134;9.212;2022-09-01T05:58:41;100117.31;;;17.64;73.94
49945;BME280;35838;49.134;9.212;2022-09-01T06:00:19;100114.53;;;17.68;73.50
49945;BME280;35838;49.134;9.212;2022-09-01T06:01:54;100108.56;;;17.63;74.66
49945;BME280;35838;49.134;9.212;2022-09-01T06:03:28;100110.41;;;17.60;74.42
49945;BME280;35838;49.134;9.212;2022-09-01T06:05:04;100113.78;;;17.65;74.22
49945;BME280;35838;49.134;9.212;2022-09-01T06:06:42;100111.28;;;17.60;74.10
49945;BME280;35838;49.134;9.212;2022-09-01T06:08:21;100110.53;;;17.57;74.92
49945;BME280;35838;49.134;9.212;2022-09-01T06:09:55;100112.06;;;17.64;74.73
49945;BME280;35838;49.134;9.212;2022-09-01T06:11:30;100119.66;;;17.73;74.88
49945;BME280;35838;49.134;9.212;2022-09-01T06:13:04;100116.66;;;17.56;74.87
49945;BME280;35838;49.134;9.212;2022-09-01T06:14:39;100122.81;;;17.54;75.21
49945;BME280;35838;49.134;9.212;2022-09-01T06:16:15;100118.97;;;17.66;74.88
49945;BME280;35838;49.134;9.212;2022-09-01T06:17:49;100120.19;;;17.54;74.24
49945;BME280;35838;49.134;9.212;2022-09-01T06:19:23;100118.66;;;17.47;75.01
49945;BME280;35838;49.134;9.212;2022-09-01T06:20:58;100112.84;;;17.36;76.33
49945;BME280;35838;49.134;9.212;2022-09-01T06:22:33;100111.66;;;17.16;76.96
49945;BME280;35838;49.134;9.212;2022-09-01T06:24:07;100110.94;;;17.11;77.58
49945;BME280;35838;49.134;9.212;2022-09-01T06:25:42;100113.63;;;17.08;77.84
49945;BME280;35838;49.134;9.212;2022-09-01T06:27:17;100107.94;;;17.25;77.23
49945;BME280;35838;49.134;9.212;2022-09-01T06:28:51;100104.00;;;17.40;77.02
49945;BME280;35838;49.134;9.212;2022-09-01T06:30:25;100112.59;;;17.45;76.34
49945;BME280;35838;49.134;9.212;2022-09-01T06:32:02;100110.38;;;17.61;76.11
49945;BME280;35838;49.134;9.212;2022-09-01T06:33:40;100107.47;;;17.70;75.53
49945;BME280;35838;49.134;9.212;2022-09-01T06:35:15;100115.84;;;17.83;75.36
49945;BME280;35838;49.134;9.212;2022-09-01T06:36:49;100112.06;;;17.92;75.08
49945;BME280;35838;49.134;9.212;2022-09-01T06:38:23;100107.44;;;18.02;74.70
49945;BME280;35838;49.134;9.212;2022-09-01T06:39:57;100107.44;;;18.02;74.57
49945;BME280;35838;49.134;9.212;2022-09-01T06:41:32;100100.25;;;18.07;74.53
49945;BME280;35838;49.134;9.212;2022-09-01T06:43:08;100108.81;;;18.12;74.35
49945;BME280;35838;49.134;9.212;2022-09-01T06:44:43;100104.31;;;18.16;74.53
49945;BME280;35838;49.134;9.212;2022-09-01T06:46:19;100106.94;;;18.17;73.80
49945;BME280;35838;49.134;9.212;2022-09-01T06:47:56;100111.03;;;17.98;73.28
49945;BME280;35838;49.134;9.212;2022-09-01T06:49:30;100110.91;;;18.03;73.62
49945;BME280;35838;49.134;9.212;2022-09-01T06:51:06;100110.13;;;17.99;73.91
49945;BME280;35838;49.134;9.212;2022-09-01T06:52:44;100108.13;;;18.07;74.15
49945;BME280;35838;49.134;9.212;2022-09-01T06:54:20;100099.19;;;18.13;74.18
49945;BME280;35838;49.134;9.212;2022-09-01T06:55:53;100103.41;;;18.19;74.35
49945;BME280;35838;49.134;9.212;2022-09-01T06:57:27;100101.47;;;18.24;73.31
49945;BME280;35838;49.134;9.212;2022-09-01T06:59:02;100099.44;;;18.32;73.53
49945;BME280;35838;49.134;9.212;2022-09-01T07:00:38;100109.66;;;18.41;73.27
49945;BME280;35838;49.134;9.212;2022-09-01T07:02:14;100108.34;;;18.55;72.48
49945;BME280;35838;49.134;9.212;2022-09-01T07:03:53;100103.09;;;18.55;71.71
49945;BME280;35838;49.134;9.212;2022-09-01T07:05:27;100101.56;;;18.47;71.93
49945;BME280;35838;49.134;9.212;2022-09-01T07:07:04;100101.25;;;18.57;71.87
49945;BME280;35838;49.134;9.212;2022-09-01T07:08:41;100107.41;;;18.56;71.26
49945;BME280;35838;49.134;9.212;2022-09-01T07:10:20;100107.38;;;18.57;71.11
49945;BME280;35838;49.134;9.212;2022-09-01T07:11:54;100104.91;;;18.53;70.86
49945;BME280;35838;49.134;9.212;2022-09-01T07:13:28;100101.38;;;18.54;71.34
49945;BME280;35838;49.134;9.212;2022-09-01T07:15:04;100106.41;;;18.60;70.47
49945;BME280;35838;49.134;9.212;2022-09-01T07:16:38;100102.94;;;18.59;70.23
49945;BME280;35838;49.134;9.212;2022-09-01T07:18:14;100103.47;;;18.69;71.10
49945;BME280;35838;49.134;9.212;2022-09-01T07:19:51;100100.78;;;18.71;70.98
49945;BME280;35838;49.134;9.212;2022-09-01T07:21:27;100111.84;;;18.81;71.01
49945;BME280;35838;49.134;9.212;2022-09-01T07:23:02;100113.34;;;18.88;71.03
49945;BME280;35838;49.134;9.212;2022-09-01T07:24:36;100117.41;;;18.71;69.58
49945;BME280;35838;49.134;9.212;2022-09-01T07:26:10;100112.34;;;18.65;69.99
49945;BME280;35838;49.134;9.212;2022-09-01T07:27:48;100113.91;;;18.71;70.04
49945;BME280;35838;49.134;9.212;2022-09-01T07:29:22;100114.88;;;18.68;70.14
49945;BME280;35838;49.134;9.212;2022-09-01T07:30:56;100113.75;;;18.50;69.98
49945;BME280;35838;49.134;9.212;2022-09-01T07:32:31;100113.91;;;18.45;70.62
49945;BME280;35838;49.134;9.212;2022-09-01T07:34:07;100114.38;;;18.57;70.45
49945;BME280;35838;49.134;9.212;2022-09-01T07:35:46;100110.91;;;18.56;70.06
49945;BME280;35838;49.134;9.212;2022-09-01T07:37:22;100108.63;;;18.72;69.97
49945;BME280;35838;49.134;9.212;2022-09-01T07:38:58;100109.56;;;18.70;69.96
49945;BME280;35838;49.134;9.212;2022-09-01T07:40:33;100108.41;;;18.78;69.69
49945;BME280;35838;49.134;9.212;2022-09-01T07:42:08;100106.59;;;18.81;69.83
49945;BME280;35838;49.134;9.212;2022-09-01T07:43:42;100109.81;;;18.89;69.61
49945;BME280;35838;49.134;9.212;2022-09-01T07:45:16;100114.94;;;18.93;68.97
49945;BME280;35838;49.134;9.212;2022-09-01T07:46:48;100114.88;;;18.95;68.77
49945;BME280;35838;49.134;9.212;2022-09-01T07:48:23;100120.03;;;18.98;69.03
49945;BME280;35838;49.134;9.212;2022-09-01T07:49:58;100120.47;;;19.09;68.70
49945;BME280;35838;49.134;9.212;2022-09-01T07:51:36;100118.56;;;19.15;68.67
49945;BME280;35838;49.134;9.212;2022-09-01T07:53:10;100124.09;;;19.31;68.76
49945;BME280;35838;49.134;9.212;2022-09-01T07:54:48;100121.44;;;19.32;67.10
49945;BME280;35838;49.134;9.212;2022-09-01T07:56:23;100123.31;;;19.29;66.26
49945;BME280;35838;49.134;9.212;2022-09-01T07:57:58;100119.53;;;19.36;66.78
49945;BME280;35838;49.134;9.212;2022-09-01T07:59:32;100127.94;;;19.46;67.04
49945;BME280;35838;49.134;9.212;2022-09-01T08:01:07;100125.66;;;19.36;66.18
49945;BME280;35838;49.134;9.212;2022-09-01T08:02:41;100119.25;;;19.20;67.32
49945;BME280;35838;49.134;9.212;2022-09-01T08:04:16;100127.19;;;19.42;67.59
49945;BME280;35838;49.134;9.212;2022-09-01T08:05:52;100119.50;;;19.61;67.54
49945;BME280;35838;49.134;9.212;2022-09-01T08:07:33;100120.72;;;19.75;65.87
49945;BME280;35838;49.134;9.212;2022-09-01T08:09:07;100121.28;;;19.83;65.14
49945;BME280;35838;49.134;9.212;2022-09-01T08:10:41;100124.25;;;19.97;64.84
49945;BME280;35838;49.134;9.212;2022-09-01T08:12:16;100126.75;;;20.00;64.26
49945;BME280;35838;49.134;9.212;2022-09-01T08:13:51;100123.69;;;19.89;64.38
49945;BME280;35838;49.134;9.212;2022-09-01T08:15:25;100126.22;;;19.92;63.76
49945;BME280;35838;49.134;9.212;2022-09-01T08:16:59;100127.06;;;19.93;65.51
49945;BME280;35838;49.134;9.212;2022-09-01T08:18:34;100122.94;;;19.85;65.05
49945;BME280;35838;49.134;9.212;2022-09-01T08:20:09;100135.72;;;19.96;65.07
49945;BME280;35838;49.134;9.212;2022-09-01T08:21:43;100130.81;;;20.09;65.00
49945;BME280;35838;49.134;9.212;2022-09-01T08:23:20;100129.22;;;20.27;65.78
49945;BME280;35838;49.134;9.212;2022-09-01T08:24:56;100119.81;;;20.42;65.81
49945;BME280;35838;49.134;9.212;2022-09-01T08:26:30;100128.38;;;20.47;64.79
49945;BME280;35838;49.134;9.212;2022-09-01T08:28:05;100127.72;;;20.42;63.57
49945;BME280;35838;49.134;9.212;2022-09-01T08:29:39;100131.88;;;20.48;64.33
49945;BME280;35838;49.134;9.212;2022-09-01T08:31:16;100127.16;;;20.56;64.78
49945;BME280;35838;49.134;9.212;2022-09-01T08:32:50;100126.41;;;20.75;64.88
49945;BME280;35838;49.134;9.212;2022-09-01T08:34:24;100125.94;;;20.86;64.36
49945;BME280;35838;49.134;9.212;2022-09-01T08:35:58;100124.53;;;20.97;63.00
49945;BME280;35838;49.134;9.212;2022-09-01T08:37:32;100126.69;;;21.08;63.75
49945;BME280;35838;49.134;9.212;2022-09-01T08:39:09;100126.13;;;21.02;62.53
49945;BME280;35838;49.134;9.212;2022-09-01T08:40:50;100124.41;;;21.01;62.20
49945;BME280;35838;49.134;9.212;2022-09-01T08:42:37;100129.22;;;20.91;62.50
49945;BME280;35838;49.134;9.212;2022-09-01T08:44:20;100123.94;;;20.70;61.89
49945;BME280;35838;49.134;9.212;2022-09-01T08:46:03;100130.72;;;20.55;62.91
49945;BME280;35838;49.134;9.212;2022-09-01T08:47:40;100127.69;;;20.64;63.89
49945;BME280;35838;49.134;9.212;2022-09-01T08:49:17;100127.94;;;20.58;63.67
49945;BME280;35838;49.134;9.212;2022-09-01T08:50:58;100128.47;;;20.66;64.34
49945;BME280;35838;49.134;9.212;2022-09-01T08:52:39;100128.78;;;20.81;64.64
49945;BME280;35838;49.134;9.212;2022-09-01T08:54:21;100121.38;;;20.89;63.57
49945;BME280;35838;49.134;9.212;2022-09-01T08:55:57;100119.19;;;20.99;63.19
49945;BME280;35838;49.134;9.212;2022-09-01T08:57:33;100117.47;;;20.98;62.50
49945;BME280;35838;49.134;9.212;2022-09-01T08:59:08;100120.09;;;20.98;62.18
49945;BME280;35838;49.134;9.212;2022-09-01T09:00:46;100123.41;;;21.03;62.66
49945;BME280;35838;49.134;9.212;2022-09-01T09:02:35;100115.41;;;21.05;61.38
49945;BME280;35838;49.134;9.212;2022-09-01T09:04:21;100123.09;;;21.11;61.87
49945;BME280;35838;49.134;9.212;2022-09-01T09:06:10;100119.78;;;20.64;60.62
49945;BME280;35838;49.134;9.212;2022-09-01T09:07:57;100126.44;;;20.53;63.03
49945;BME280;35838;49.134;9.212;2022-09-01T09:09:41;100114.69;;;20.60;63.37
49945;BME280;35838;49.134;9.212;2022-09-01T09:11:28;100124.78;;;20.71;63.08
49945;BME280;35838;49.134;9.212;2022-09-01T09:13:10;100122.13;;;20.71;62.62
49945;BME280;35838;49.134;9.212;2022-09-01T09:15:01;100125.84;;;20.87;63.97
49945;BME280;35838;49.134;9.212;2022-09-01T09:16:41;100121.63;;;21.04;63.19
49945;BME280;35838;49.134;9.212;2022-09-01T09:18:27;100127.28;;;21.15;62.85
49945;BME280;35838;49.134;9.212;2022-09-01T09:20:03;100129.22;;;21.31;61.94
49945;BME280;35838;49.134;9.212;2022-09-01T09:21:39;100124.88;;;21.29;61.48
49945;BME280;35838;49.134;9.212;2022-09-01T09:23:20;100125.31;;;21.39;60.94
49945;BME280;35838;49.134;9.212;2022-09-01T09:25:03;100121.06;;;21.37;60.56
49945;BME280;35838;49.134;9.212;2022-09-01T09:26:39;100119.97;;;21.22;60.31
49945;BME280;35838;49.134;9.212;2022-09-01T09:28:13;100121.88;;;21.18;60.14
49945;BME280;35838;49.134;9.212;2022-09-01T09:29:48;100127.38;;;21.33;60.79
49945;BME280;35838;49.134;9.212;2022-09-01T09:31:24;100118.88;;;21.26;59.12
49945;BME280;35838;49.134;9.212;2022-09-01T09:33:00;100115.00;;;21.14;58.93
49945;BME280;35838;49.134;9.212;2022-09-01T09:34:36;100115.06;;;21.33;60.19
49945;BME280;35838;49.134;9.212;2022-09-01T09:36:19;100115.91;;;21.34;58.89
49945;BME280;35838;49.134;9.212;2022-09-01T09:37:54;100111.34;;;21.37;58.44
49945;BME280;35838;49.134;9.212;2022-09-01T09:39:29;100110.00;;;21.48;59.38
49945;BME280;35838;49.134;9.212;2022-09-01T09:41:08;100110.72;;;21.70;59.46
49945;BME280;35838;49.134;9.212;2022-09-01T09:43:03;100105.28;;;21.92;59.19
49945;BME280;35838;49.134;9.212;2022-09-01T09:44:43;100103.06;;;22.02;57.63
49945;BME280;35838;49.134;9.212;2022-09-01T09:46:27;100098.72;;;21.82;56.89
49945;BME280;35838;49.134;9.212;2022-09-01T09:48:08;100108.66;;;21.77;56.94
49945;BME280;35838;49.134;9.212;2022-09-01T09:49:43;100108.94;;;21.71;57.10
49945;BME280;35838;49.134;9.212;2022-09-01T09:51:20;100109.50;;;21.78;56.80
49945;BME280;35838;49.134;9.212;2022-09-01T09:53:10;100110.00;;;21.67;56.58
49945;BME280;35838;49.134;9.212;2022-09-01T09:55:01;100114.06;;;21.55;56.93
49945;BME280;35838;49.134;9.212;2022-09-01T09:56:38;100106.94;;;21.57;57.65
49945;BME280;35838;49.134;9.212;2022-09-01T09:58:14;100107.28;;;21.49;56.39
49945;BME280;35838;49.134;9.212;2022-09-01T09:59:54;100113.13;;;21.37;57.19
49945;BME280;35838;49.134;9.212;2022-09-01T10:01:30;100106.91;;;21.38;57.32
49945;BME280;35838;49.134;9.212;2022-09-01T10:03:06;100111.84;;;21.45;58.75
49945;BME280;35838;49.134;9.212;2022-09-01T10:04:41;100110.06;;;21.46;57.44
49945;BME280;35838;49.134;9.212;2022-09-01T10:06:30;100107.91;;;21.35;56.85
49945;BME280;35838;49.134;9.212;2022-09-01T10:08:06;100112.75;;;21.44;58.03
49945;BME280;35838;49.134;9.212;2022-09-01T10:09:41;100107.78;;;21.38;56.79
49945;BME280;35838;49.134;9.212;2022-09-01T10:11:28;100109.28;;;21.44;56.56
49945;BME280;35838;49.134;9.212;2022-09-01T10:13:09;100110.63;;;21.34;56.45
49945;BME280;35838;49.134;9.212;2022-09-01T10:14:47;100108.28;;;21.27;56.27
49945;BME280;35838;49.134;9.212;2022-09-01T10:16:26;100098.75;;;21.23;56.98
49945;BME280;35838;49.134;9.212;2022-09-01T10:18:05;100103.25;;;21.21;56.97
49945;BME280;35838;49.134;9.212;2022-09-01T10:19:50;100108.72;;;21.17;56.19
49945;BME280;35838;49.134;9.212;2022-09-01T10:21:34;100095.75;;;21.12;56.87
49945;BME280;35838;49.134;9.212;2022-09-01T10:23:10;100097.91;;;21.23;56.66
49945;BME280;35838;49.134;9.212;2022-09-01T10:24:44;100101.78;;;21.35;57.11
49945;BME280;35838;49.134;9.212;2022-09-01T10:26:22;100097.94;;;21.42;56.90
49945;BME280;35838;49.134;9.212;2022-09-01T10:28:01;100100.66;;;21.59;57.04
49945;BME280;35838;49.134;9.212;2022-09-01T10:29:47;100090.22;;;21.56;56.31
49945;BME280;35838;49.134;9.212;2022-09-01T10:31:23;100094.31;;;21.64;56.49
49945;BME280;35838;49.134;9.212;2022-09-01T10:32:59;100103.59;;;21.72;56.62
49945;BME280;35838;49.134;9.212;2022-09-01T10:34:36;100106.66;;;21.63;56.25
49945;BME280;35838;49.134;9.212;2022-09-01T10:36:12;100103.19;;;21.63;55.95
49945;BME280;35838;49.134;9.212;2022-09-01T10:37:48;100102.53;;;21.77;56.79
49945;BME280;35838;49.134;9.212;2022-09-01T10:39:23;100095.38;;;21.79;56.28
49945;BME280;35838;49.134;9.212;2022-09-01T10:40:58;100098.50;;;21.87;56.32
49945;BME280;35838;49.134;9.212;2022-09-01T10:42:44;100098.78;;;21.81;55.00
49945;BME280;35838;49.134;9.212;2022-09-01T10:44:21;100098.09;;;21.77;54.89
49945;BME280;35838;49.134;9.212;2022-09-01T10:48:21;100093.94;;;21.90;54.36
49945;BME280;35838;49.134;9.212;2022-09-01T10:50:01;100089.81;;;21.85;54.55
49945;BME280;35838;49.134;9.212;2022-09-01T10:51:44;100094.00;;;21.89;54.77
49945;BME280;35838;49.134;9.212;2022-09-01T10:53:36;100094.34;;;22.00;54.40
49945;BME280;35838;49.134;9.212;2022-09-01T10:55:14;100089.75;;;22.04;53.80
49945;BME280;35838;49.134;9.212;2022-09-01T10:56:50;100090.66;;;21.85;53.71
49945;BME280;35838;49.134;9.212;2022-09-01T10:58:46;100088.09;;;21.84;54.16
49945;BME280;35838;49.134;9.212;2022-09-01T11:00:46;100092.06;;;21.92;53.30
49945;BME280;35838;49.134;9.212;2022-09-01T11:02:23;100085.19;;;22.07;54.79
49945;BME280;35838;49.134;9.212;2022-09-01T11:03:59;100081.38;;;22.13;52.35
49945;BME280;35838;49.134;9.212;2022-09-01T11:06:00;100079.22;;;22.21;51.57
49945;BME280;35838;49.134;9.212;2022-09-01T11:07:35;100079.13;;;22.23;52.11
49945;BME280;35838;49.134;9.212;2022-09-01T11:09:19;100080.38;;;22.33;51.28
49945;BME280;35838;49.134;9.212;2022-09-01T11:10:57;100083.22;;;22.48;51.57
49945;BME280;35838;49.134;9.212;2022-09-01T11:12:58;100071.88;;;22.79;50.75
49945;BME280;35838;49.134;9.212;2022-09-01T11:14:47;100074.50;;;22.97;50.72
49945;BME280;35838;49.134;9.212;2022-09-01T11:16:30;100075.16;;;22.84;49.88
49945;BME280;35838;49.134;9.212;2022-09-01T11:18:13;100075.47;;;22.96;50.48
49945;BME280;35838;49.134;9.212;2022-09-01T11:19:55;100074.69;;;22.94;50.28
49945;BME280;35838;49.134;9.212;2022-09-01T11:21:29;100070.66;;;22.87;50.03
49945;BME280;35838;49.134;9.212;2022-09-01T11:23:07;100079.19;;;22.92;50.71
49945;BME280;35838;49.134;9.212;2022-09-01T11:24:47;100072.28;;;22.89;50.06
49945;BME280;35838;49.134;9.212;2022-09-01T11:26:44;100067.00;;;22.89;50.60
49945;BME280;35838;49.134;9.212;2022-09-01T11:28:39;100072.28;;;22.89;50.55
49945;BME280;35838;49.134;9.212;2022-09-01T11:30:16;100068.53;;;22.93;49.79
49945;BME280;35838;49.134;9.212;2022-09-01T11:31:51;100062.22;;;22.96;50.32
49945;BME280;35838;49.134;9.212;2022-09-01T11:33:37;100059.69;;;23.10;50.52
49945;BME280;35838;49.134;9.212;2022-09-01T11:35:17;100055.16;;;23.30;50.53
49945;BME280;35838;49.134;9.212;2022-09-01T11:36:57;100049.34;;;23.39;48.30
49945;BME280;35838;49.134;9.212;2022-09-01T11:38:48;100047.34;;;23.59;49.23
49945;BME280;35838;49.134;9.212;2022-09-01T11:40:27;100047.44;;;23.73;48.50
49945;BME280;35838;49.134;9.212;2022-09-01T11:42:06;100048.19;;;23.91;47.85
49945;BME280;35838;49.134;9.212;2022-09-01T11:43:41;100034.84;;;23.93;47.44
49945;BME280;35838;49.134;9.212;2022-09-01T11:45:17;100040.19;;;23.77;47.32
49945;BME280;35838;49.134;9.212;2022-09-01T11:46:58;100046.31;;;23.77;48.33
49945;BME280;35838;49.134;9.212;2022-09-01T11:48:38;100040.59;;;23.85;49.86
49945;BME280;35838;49.134;9.212;2022-09-01T11:50:18;100041.72;;;23.65;48.44
49945;BME280;35838;49.134;9.212;2022-09-01T11:51:53;100043.69;;;23.29;49.43